sensor_id;sensor_type;location;lat;lon;timestamp;P1;durP1;ratioP1;P2;durP2;ratioP2
20306;SDS011;10312;52.434;13.206;2022-09-01T00:01:51;0.65;;;0.45;;
20306;SDS011;10312;52.434;13.206;2022-09-01T00:04:20;0.75;;;0.50;;
20306;SDS011;10312;52.434;13.206;2022-09-01T00:06:48;2.67;;;0.70;;
20306;SDS011;10312;52.434;13.206;2022-09-01T00:09:17;0.95;;;0.63;;
20306;SDS011;10312;52.434;13.206;2022-09-01T00:11:46;2.45;;;0.50;;
20306;SDS011;10312;52.434;13.206;2022-09-01T00:14:16;1.95;;;0.70;;
20306;SDS011;10312;52.434;13.206;2022-09-01T00:16:57;1.83;;;0.65;;
20306;SDS011;10312;52.434;13.206;2022-09-01T00:19:28;0.85;;;0.50;;
20306;SDS011;10312;52.434;13.206;2022-09-01T00:21:55;2.83;;;0.60;;
20306;SDS011;10312;52.434;13.206;2022-09-01T00:24:22;1.40;;;0.65;;
20306;SDS011;10312;52.434;13.206;2022-09-01T00:26:52;2.90;;;0.60;;
20306;SDS011;10312;52.434;13.206;2022-09-01T00:29:19;1.38;;;0.50;;
20306;SDS011;10312;52.434;13.206;2022-09-01T00:31:46;1.08;;;0.60;;
20306;SDS011;10312;52.434;13.206;2022-09-01T00:34:13;1.35;;;0.60;;
20306;SDS011;10312;52.434;13.206;2022-09-01T00:36:40;4.03;;;0.60;;
20306;SDS011;10312;52.434;13.206;2022-09-01T00:39:07;1.27;;;0.43;;
20306;SDS011;10312;52.434;13.206;2022-09-01T00:41:36;1.02;;;0.50;;
20306;SDS011;10312;52.434;13.206;2022-09-01T00:44:06;1.85;;;0.60;;
20306;SDS011;10312;52.434;13.206;2022-09-01T00:46:38;1.40;;;0.50;;
20306;SDS011;10312;52.434;13.206;2022-09-01T00:49:19;1.63;;;0.57;;
20306;SDS011;10312;52.434;13.206;2022-09-01T00:51:51;1.67;;;0.60;;
20306;SDS011;10312;52.434;13.206;2022-09-01T00:54:24;1.73;;;0.65;;
20306;SDS011;10312;52.434;13.206;2022-09-01T00:56:52;1.00;;;0.65;;
20306;SDS011;10312;52.434;13.206;2022-09-01T00:59:23;3.40;;;0.60;;
20306;SDS011;10312;52.434;13.206;2022-09-01T01:01:51;2.80;;;0.50;;
20306;SDS011;10312;52.434;13.206;2022-09-01T01:04:19;2.88;;;0.57;;
20306;SDS011;10312;52.434;13.206;2022-09-01T01:06:47;1.65;;;0.50;;
20306;SDS011;10312;52.434;13.206;2022-09-01T01:09:24;1.90;;;0.40;;
20306;SDS011;10312;52.434;13.206;2022-09-01T01:11:52;0.80;;;0.40;;
20306;SDS011;10312;52.434;13.206;2022-09-01T01:14:19;1.00;;;0.47;;
20306;SDS011;10312;52.434;13.206;2022-09-01T01:16:47;1.52;;;0.50;;
20306;SDS011;10312;52.434;13.206;2022-09-01T01:22:09;0.90;;;0.50;;
20306;SDS011;10312;52.434;13.206;2022-09-01T01:24:59;2.55;;;0.60;;
20306;SDS011;10312;52.434;13.206;2022-09-01T01:27:32;0.77;;;0.45;;
20306;SDS011;10312;52.434;13.206;2022-09-01T01:30:09;1.05;;;0.40;;
20306;SDS011;10312;52.434;13.206;2022-09-01T01:32:38;2.92;;;0.60;;
20306;SDS011;10312;52.434;13.206;2022-09-01T01:35:09;0.77;;;0.43;;
20306;SDS011;10312;52.434;13.206;2022-09-01T01:37:41;2.75;;;0.60;;
20306;SDS011;10312;52.434;13.206;2022-09-01T01:40:18;2.00;;;0.68;;
20306;SDS011;10312;52.434;13.206;2022-09-01T01:42:49;1.85;;;0.47;;
20306;SDS011;10312;52.434;13.206;2022-09-01T01:45:18;2.67;;;0.80;;
20306;SDS011;10312;52.434;13.206;2022-09-01T01:47:47;1.33;;;0.50;;
20306;SDS011;10312;52.434;13.206;2022-09-01T01:50:28;0.90;;;0.50;;
20306;SDS011;10312;52.434;13.206;2022-09-01T01:53:03;1.35;;;0.60;;
20306;SDS011;10312;52.434;13.206;2022-09-01T01:55:38;1.17;;;0.50;;
20306;SDS011;10312;52.434;13.206;2022-09-01T01:58:06;0.73;;;0.35;;
20306;SDS011;10312;52.434;13.206;2022-09-01T02:00:33;1.15;;;0.50;;
20306;SDS011;10312;52.434;13.206;2022-09-01T02:03:01;1.52;;;0.60;;
20306;SDS011;10312;52.434;13.206;2022-09-01T02:05:29;1.23;;;0.52;;
20306;SDS011;10312;52.434;13.206;2022-09-01T02:08:05;2.70;;;0.43;;
20306;SDS011;10312;52.434;13.206;2022-09-01T02:10:40;1.48;;;0.60;;
20306;SDS011;10312;52.434;13.206;2022-09-01T02:13:10;1.67;;;0.50;;
20306;SDS011;10312;52.434;13.206;2022-09-01T02:15:43;1.38;;;0.60;;
20306;SDS011;10312;52.434;13.206;2022-09-01T02:18:22;4.20;;;0.65;;
20306;SDS011;10312;52.434;13.206;2022-09-01T02:20:56;1.40;;;0.70;;
20306;SDS011;10312;52.434;13.206;2022-09-01T02:23:24;0.85;;;0.45;;
20306;SDS011;10312;52.434;13.206;2022-09-01T02:25:53;2.22;;;0.50;;
20306;SDS011;10312;52.434;13.206;2022-09-01T02:28:42;4.18;;;0.47;;
20306;SDS011;10312;52.434;13.206;2022-09-01T02:31:10;2.25;;;0.40;;
20306;SDS011;10312;52.434;13.206;2022-09-01T02:33:38;0.80;;;0.50;;
20306;SDS011;10312;52.434;13.206;2022-09-01T02:36:09;3.22;;;0.50;;
20306;SDS011;10312;52.434;13.206;2022-09-01T02:38:39;1.10;;;0.45;;
20306;SDS011;10312;52.434;13.206;2022-09-01T02:41:18;1.05;;;0.70;;
20306;SDS011;10312;52.434;13.206;2022-09-01T02:43:54;3.65;;;0.70;;
20306;SDS011;10312;52.434;13.206;2022-09-01T02:46:22;1.92;;;0.65;;
20306;SDS011;10312;52.434;13.206;2022-09-01T02:48:51;1.52;;;0.50;;
20306;SDS011;10312;52.434;13.206;2022-09-01T02:51:19;2.17;;;0.47;;
20306;SDS011;10312;52.434;13.206;2022-09-01T02:53:48;1.45;;;0.50;;
20306;SDS011;10312;52.434;13.206;2022-09-01T02:56:21;1.38;;;0.65;;
20306;SDS011;10312;52.434;13.206;2022-09-01T02:58:52;0.70;;;0.40;;
20306;SDS011;10312;52.434;13.206;2022-09-01T03:01:21;0.90;;;0.60;;
20306;SDS011;10312;52.434;13.206;2022-09-01T03:03:52;1.42;;;0.60;;
20306;SDS011;10312;52.434;13.206;2022-09-01T03:06:21;1.48;;;0.65;;
20306;SDS011;10312;52.434;13.206;2022-09-01T03:08:54;1.08;;;0.45;;
20306;SDS011;10312;52.434;13.206;2022-09-01T03:11:25;1.05;;;0.50;;
20306;SDS011;10312;52.434;13.206;2022-09-01T03:13:54;1.35;;;0.50;;
20306;SDS011;10312;52.434;13.206;2022-09-01T03:16:22;1.58;;;0.60;;
20306;SDS011;10312;52.434;13.206;2022-09-01T03:18:50;0.85;;;0.47;;
20306;SDS011;10312;52.434;13.206;2022-09-01T03:21:17;2.80;;;0.60;;
20306;SDS011;10312;52.434;13.206;2022-09-01T03:23:45;2.63;;;0.50;;
20306;SDS011;10312;52.434;13.206;2022-09-01T03:26:15;0.75;;;0.43;;
20306;SDS011;10312;52.434;13.206;2022-09-01T03:28:44;1.83;;;0.50;;
20306;SDS011;10312;52.434;13.206;2022-09-01T03:31:12;1.20;;;0.60;;
20306;SDS011;10312;52.434;13.206;2022-09-01T03:33:40;3.00;;;0.43;;
20306;SDS011;10312;52.434;13.206;2022-09-01T03:36:14;1.38;;;0.60;;
20306;SDS011;10312;52.434;13.206;2022-09-01T03:38:47;4.22;;;0.90;;
20306;SDS011;10312;52.434;13.206;2022-09-01T03:41:17;1.95;;;0.50;;
20306;SDS011;10312;52.434;13.206;2022-09-01T03:43:47;1.63;;;0.60;;
20306;SDS011;10312;52.434;13.206;2022-09-01T03:46:14;1.27;;;0.65;;
20306;SDS011;10312;52.434;13.206;2022-09-01T03:48:48;3.13;;;0.70;;
20306;SDS011;10312;52.434;13.206;2022-09-01T03:51:21;1.23;;;0.60;;
20306;SDS011;10312;52.434;13.206;2022-09-01T03:53:49;2.13;;;0.73;;
20306;SDS011;10312;52.434;13.206;2022-09-01T03:56:20;1.45;;;0.77;;
20306;SDS011;10312;52.434;13.206;2022-09-01T03:58:49;2.00;;;0.77;;
20306;SDS011;10312;52.434;13.206;2022-09-01T04:01:17;3.15;;;0.93;;
20306;SDS011;10312;52.434;13.206;2022-09-01T04:03:45;1.63;;;0.82;;
20306;SDS011;10312;52.434;13.206;2022-09-01T04:06:18;1.25;;;0.60;;
20306;SDS011;10312;52.434;13.206;2022-09-01T04:08:49;1.80;;;0.60;;
20306;SDS011;10312;52.434;13.206;2022-09-01T04:11:22;1.00;;;0.65;;
20306;SDS011;10312;52.434;13.206;2022-09-01T04:13:51;1.73;;;0.75;;
20306;SDS011;10312;52.434;13.206;2022-09-01T04:16:19;4.53;;;0.90;;
20306;SDS011;10312;52.434;13.206;2022-09-01T04:19:10;1.52;;;0.73;;
20306;SDS011;10312;52.434;13.206;2022-09-01T04:21:55;1.83;;;0.80;;
20306;SDS011;10312;52.434;13.206;2022-09-01T04:24:34;1.13;;;0.80;;
20306;SDS011;10312;52.434;13.206;2022-09-01T04:27:01;2.22;;;0.90;;
20306;SDS011;10312;52.434;13.206;2022-09-01T04:29:29;2.10;;;1.10;;
20306;SDS011;10312;52.434;13.206;2022-09-01T04:31:59;2.15;;;0.80;;
20306;SDS011;10312;52.434;13.206;2022-09-01T04:34:30;2.03;;;0.80;;
20306;SDS011;10312;52.434;13.206;2022-09-01T04:37:07;2.33;;;0.90;;
20306;SDS011;10312;52.434;13.206;2022-09-01T04:39:39;3.88;;;1.15;;
20306;SDS011;10312;52.434;13.206;2022-09-01T04:42:20;4.20;;;1.15;;
20306;SDS011;10312;52.434;13.206;2022-09-01T04:44:50;2.25;;;0.90;;
20306;SDS011;10312;52.434;13.206;2022-09-01T04:47:20;2.80;;;1.45;;
20306;SDS011;10312;52.434;13.206;2022-09-01T04:50:06;4.18;;;1.45;;
20306;SDS011;10312;52.434;13.206;2022-09-01T04:52:43;4.05;;;1.27;;
20306;SDS011;10312;52.434;13.206;2022-09-01T04:55:28;4.47;;;1.20;;
20306;SDS011;10312;52.434;13.206;2022-09-01T04:57:56;3.80;;;1.40;;
20306;SDS011;10312;52.434;13.206;2022-09-01T05:00:25;2.42;;;0.98;;
20306;SDS011;10312;52.434;13.206;2022-09-01T05:02:54;2.13;;;1.00;;
20306;SDS011;10312;52.434;13.206;2022-09-01T05:05:42;1.98;;;1.20;;
20306;SDS011;10312;52.434;13.206;2022-09-01T05:08:14;3.45;;;1.10;;
20306;SDS011;10312;52.434;13.206;2022-09-01T05:10:52;4.53;;;1.27;;
20306;SDS011;10312;52.434;13.206;2022-09-01T05:13:35;2.58;;;1.10;;
20306;SDS011;10312;52.434;13.206;2022-09-01T05:16:06;2.97;;;0.95;;
20306;SDS011;10312;52.434;13.206;2022-09-01T05:18:42;4.78;;;1.48;;
20306;SDS011;10312;52.434;13.206;2022-09-01T05:21:16;2.58;;;1.10;;
20306;SDS011;10312;52.434;13.206;2022-09-01T05:23:45;3.28;;;1.50;;
20306;SDS011;10312;52.434;13.206;2022-09-01T05:26:14;4.05;;;1.20;;
20306;SDS011;10312;52.434;13.206;2022-09-01T05:28:48;1.88;;;1.10;;
20306;SDS011;10312;52.434;13.206;2022-09-01T05:31:19;2.35;;;1.00;;
20306;SDS011;10312;52.434;13.206;2022-09-01T05:33:47;4.47;;;1.38;;
20306;SDS011;10312;52.434;13.206;2022-09-01T05:36:17;2.78;;;1.08;;
20306;SDS011;10312;52.434;13.206;2022-09-01T05:38:46;6.30;;;1.63;;
20306;SDS011;10312;52.434;13.206;2022-09-01T05:41:15;2.92;;;1.40;;
20306;SDS011;10312;52.434;13.206;2022-09-01T05:43:44;4.47;;;1.40;;
20306;SDS011;10312;52.434;13.206;2022-09-01T05:46:12;2.08;;;1.10;;
20306;SDS011;10312;52.434;13.206;2022-09-01T05:48:43;4.07;;;1.20;;
20306;SDS011;10312;52.434;13.206;2022-09-01T05:51:12;2.72;;;1.30;;
20306;SDS011;10312;52.434;13.206;2022-09-01T05:54:03;6.30;;;1.30;;
20306;SDS011;10312;52.434;13.206;2022-09-01T05:56:35;2.33;;;1.00;;
20306;SDS011;10312;52.434;13.206;2022-09-01T05:59:12;3.35;;;1.30;;
20306;SDS011;10312;52.434;13.206;2022-09-01T06:01:50;4.35;;;1.27;;
20306;SDS011;10312;52.434;13.206;2022-09-01T06:04:22;5.93;;;1.23;;
20306;SDS011;10312;52.434;13.206;2022-09-01T06:06:51;5.70;;;1.25;;
20306;SDS011;10312;52.434;13.206;2022-09-01T06:09:36;2.97;;;1.08;;
20306;SDS011;10312;52.434;13.206;2022-09-01T06:12:09;3.90;;;1.30;;
20306;SDS011;10312;52.434;13.206;2022-09-01T06:14:49;3.17;;;1.10;;
20306;SDS011;10312;52.434;13.206;2022-09-01T06:17:17;4.30;;;1.08;;
20306;SDS011;10312;52.434;13.206;2022-09-01T06:19:51;4.55;;;1.00;;
20306;SDS011;10312;52.434;13.206;2022-09-01T06:22:21;2.97;;;1.35;;
20306;SDS011;10312;52.434;13.206;2022-09-01T06:24:49;4.55;;;0.90;;
20306;SDS011;10312;52.434;13.206;2022-09-01T06:27:26;2.60;;;0.80;;
20306;SDS011;10312;52.434;13.206;2022-09-01T06:29:53;4.10;;;1.45;;
20306;SDS011;10312;52.434;13.206;2022-09-01T06:32:21;1.20;;;0.70;;
20306;SDS011;10312;52.434;13.206;2022-09-01T06:34:52;3.60;;;1.13;;
20306;SDS011;10312;52.434;13.206;2022-09-01T06:37:20;2.25;;;0.90;;
20306;SDS011;10312;52.434;13.206;2022-09-01T06:39:51;2.22;;;1.00;;
20306;SDS011;10312;52.434;13.206;2022-09-01T06:42:18;3.85;;;1.00;;
20306;SDS011;10312;52.434;13.206;2022-09-01T06:44:51;1.67;;;0.63;;
20306;SDS011;10312;52.434;13.206;2022-09-01T06:47:18;2.22;;;0.82;;
20306;SDS011;10312;52.434;13.206;2022-09-01T06:49:45;3.20;;;0.85;;
20306;SDS011;10312;52.434;13.206;2022-09-01T06:52:18;3.63;;;0.98;;
20306;SDS011;10312;52.434;13.206;2022-09-01T06:54:50;4.30;;;0.70;;
20306;SDS011;10312;52.434;13.206;2022-09-01T06:57:18;2.53;;;0.80;;
20306;SDS011;10312;52.434;13.206;2022-09-01T07:00:08;1.40;;;0.60;;
20306;SDS011;10312;52.434;13.206;2022-09-01T07:02:51;2.03;;;0.85;;
20306;SDS011;10312;52.434;13.206;2022-09-01T07:05:42;4.93;;;1.63;;
20306;SDS011;10312;52.434;13.206;2022-09-01T07:09:02;2.22;;;0.73;;
20306;SDS011;10312;52.434;13.206;2022-09-01T07:12:06;7.07;;;0.93;;
20306;SDS011;10312;52.434;13.206;2022-09-01T07:14:51;4.60;;;1.05;;
20306;SDS011;10312;52.434;13.206;2022-09-01T07:17:41;1.83;;;0.80;;
20306;SDS011;10312;52.434;13.206;2022-09-01T07:20:24;2.25;;;0.60;;
20306;SDS011;10312;52.434;13.206;2022-09-01T07:22:56;1.67;;;0.68;;
20306;SDS011;10312;52.434;13.206;2022-09-01T07:25:33;3.35;;;0.70;;
20306;SDS011;10312;52.434;13.206;2022-09-01T07:28:30;2.25;;;0.88;;
20306;SDS011;10312;52.434;13.206;2022-09-01T07:31:05;7.28;;;0.88;;
20306;SDS011;10312;52.434;13.206;2022-09-01T07:33:57;1.70;;;0.60;;
20306;SDS011;10312;52.434;13.206;2022-09-01T07:36:47;3.25;;;0.68;;
20306;SDS011;10312;52.434;13.206;2022-09-01T07:39:36;5.20;;;0.68;;
20306;SDS011;10312;52.434;13.206;2022-09-01T07:42:34;1.77;;;0.60;;
20306;SDS011;10312;52.434;13.206;2022-09-01T07:45:43;1.33;;;0.63;;
20306;SDS011;10312;52.434;13.206;2022-09-01T07:48:24;2.25;;;0.60;;
20306;SDS011;10312;52.434;13.206;2022-09-01T07:51:17;2.42;;;0.50;;
20306;SDS011;10312;52.434;13.206;2022-09-01T07:54:04;3.92;;;0.65;;
20306;SDS011;10312;52.434;13.206;2022-09-01T07:56:32;1.02;;;0.40;;
20306;SDS011;10312;52.434;13.206;2022-09-01T07:59:06;2.45;;;0.50;;
20306;SDS011;10312;52.434;13.206;2022-09-01T08:01:36;3.00;;;0.50;;
20306;SDS011;10312;52.434;13.206;2022-09-01T08:04:03;2.78;;;0.70;;
20306;SDS011;10312;52.434;13.206;2022-09-01T08:06:30;1.52;;;0.50;;
20306;SDS011;10312;52.434;13.206;2022-09-01T08:09:06;1.95;;;0.50;;
20306;SDS011;10312;52.434;13.206;2022-09-01T08:11:37;3.53;;;0.50;;
20306;SDS011;10312;52.434;13.206;2022-09-01T08:14:24;1.00;;;0.35;;
20306;SDS011;10312;52.434;13.206;2022-09-01T08:16:51;2.45;;;0.45;;
20306;SDS011;10312;52.434;13.206;2022-09-01T08:19:18;0.90;;;0.50;;
20306;SDS011;10312;52.434;13.206;2022-09-01T08:22:08;1.67;;;0.47;;
20306;SDS011;10312;52.434;13.206;2022-09-01T08:24:49;0.70;;;0.38;;
20306;SDS011;10312;52.434;13.206;2022-09-01T08:27:17;2.92;;;0.40;;
20306;SDS011;10312;52.434;13.206;2022-09-01T08:29:44;2.08;;;0.80;;
20306;SDS011;10312;52.434;13.206;2022-09-01T08:32:11;2.55;;;0.45;;
20306;SDS011;10312;52.434;13.206;2022-09-01T08:34:38;1.77;;;0.60;;
20306;SDS011;10312;52.434;13.206;2022-09-01T08:37:05;1.92;;;0.55;;
20306;SDS011;10312;52.434;13.206;2022-09-01T08:39:33;2.85;;;0.40;;
20306;SDS011;10312;52.434;13.206;2022-09-01T08:42:17;1.33;;;0.40;;
20306;SDS011;10312;52.434;13.206;2022-09-01T08:47:14;0.50;;;0.28;;
20306;SDS011;10312;52.434;13.206;2022-09-01T08:49:43;1.92;;;0.60;;
20306;SDS011;10312;52.434;13.206;2022-09-01T08:57:55;1.55;;;0.50;;
20306;SDS011;10312;52.434;13.206;2022-09-01T09:00:27;0.68;;;0.43;;
20306;SDS011;10312;52.434;13.206;2022-09-01T09:16:47;1.08;;;0.40;;
20306;SDS011;10312;52.434;13.206;2022-09-01T09:19:27;1.25;;;0.40;;
20306;SDS011;10312;52.434;13.206;2022-09-01T09:21:57;0.52;;;0.30;;
20306;SDS011;10312;52.434;13.206;2022-09-01T09:27:33;2.03;;;0.60;;
20306;SDS011;10312;52.434;13.206;2022-09-01T09:30:35;1.02;;;0.40;;
20306;SDS011;10312;52.434;13.206;2022-09-01T09:32:58;1.20;;;0.50;;
20306;SDS011;10312;52.434;13.206;2022-09-01T09:35:51;1.65;;;0.50;;
20306;SDS011;10312;52.434;13.206;2022-09-01T09:38:21;1.75;;;0.38;;
20306;SDS011;10312;52.434;13.206;2022-09-01T09:43:59;1.00;;;0.32;;
20306;SDS011;10312;52.434;13.206;2022-09-01T09:46:34;0.80;;;0.30;;
20306;SDS011;10312;52.434;13.206;2022-09-01T09:49:21;1.83;;;0.60;;
20306;SDS011;10312;52.434;13.206;2022-09-01T09:54:40;1.05;;;0.57;;
20306;SDS011;10312;52.434;13.206;2022-09-01T09:57:22;1.42;;;0.28;;
20306;SDS011;10312;52.434;13.206;2022-09-01T09:59:54;0.70;;;0.30;;
20306;SDS011;10312;52.434;13.206;2022-09-01T10:08:53;2.47;;;0.38;;
20306;SDS011;10312;52.434;13.206;2022-09-01T10:11:00;2.38;;;0.32;;
20306;SDS011;10312;52.434;13.206;2022-09-01T10:13:27;2.42;;;0.50;;
20306;SDS011;10312;52.434;13.206;2022-09-01T10:15:59;2.25;;;0.45;;
20306;SDS011;10312;52.434;13.206;2022-09-01T10:18:41;1.55;;;0.40;;
20306;SDS011;10312;52.434;13.206;2022-09-01T10:21:14;2.45;;;0.30;;
20306;SDS011;10312;52.434;13.206;2022-09-01T10:23:43;1.02;;;0.50;;
20306;SDS011;10312;52.434;13.206;2022-09-01T10:26:12;2.85;;;0.30;;
20306;SDS011;10312;52.434;13.206;2022-09-01T10:28:52;1.13;;;0.32;;
20306;SDS011;10312;52.434;13.206;2022-09-01T10:31:23;1.77;;;0.40;;
20306;SDS011;10312;52.434;13.206;2022-09-01T10:33:58;2.58;;;0.70;;
20306;SDS011;10312;52.434;13.206;2022-09-01T10:36:31;1.48;;;0.52;;
20306;SDS011;10312;52.434;13.206;2022-09-01T10:39:00;0.57;;;0.30;;
20306;SDS011;10312;52.434;13.206;2022-09-01T10:44:33;3.13;;;0.50;;
20306;SDS011;10312;52.434;13.206;2022-09-01T10:47:04;1.35;;;0.30;;
20306;SDS011;10312;52.434;13.206;2022-09-01T10:49:56;0.22;;;0.20;;
20306;SDS011;10312;52.434;13.206;2022-09-01T10:55:13;1.05;;;0.38;;
20306;SDS011;10312;52.434;13.206;2022-09-01T10:57:53;1.00;;;0.40;;
20306;SDS011;10312;52.434;13.206;2022-09-01T11:05:58;0.80;;;0.30;;
20306;SDS011;10312;52.434;13.206;2022-09-01T11:08:55;0.73;;;0.30;;
20306;SDS011;10312;52.434;13.206;2022-09-01T11:11:36;1.10;;;0.47;;
20306;SDS011;10312;52.434;13.206;2022-09-01T11:14:20;0.85;;;0.20;;
20306;SDS011;10312;52.434;13.206;2022-09-01T11:22:28;0.63;;;0.38;;
20306;SDS011;10312;52.434;13.206;2022-09-01T11:28:08;1.70;;;0.35;;
20306;SDS011;10312;52.434;13.206;2022-09-01T11:30:45;1.35;;;0.30;;
20306;SDS011;10312;52.434;13.206;2022-09-01T11:36:05;5.32;;;0.60;;
20306;SDS011;10312;52.434;13.206;2022-09-01T11:39:23;1.85;;;0.40;;
20306;SDS011;10312;52.434;13.206;2022-09-01T11:47:28;2.58;;;0.40;;
20306;SDS011;10312;52.434;13.206;2022-09-01T11:52:41;1.90;;;0.43;;
20306;SDS011;10312;52.434;13.206;2022-09-01T11:55:09;0.40;;;0.20;;
20306;SDS011;10312;52.434;13.206;2022-09-01T11:57:37;0.82;;;0.30;;
20306;SDS011;10312;52.434;13.206;2022-09-01T12:00:09;0.93;;;0.30;;
20306;SDS011;10312;52.434;13.206;2022-09-01T12:02:43;1.35;;;0.40;;
20306;SDS011;10312;52.434;13.206;2022-09-01T12:08:01;2.40;;;0.40;;
20306;SDS011;10312;52.434;13.206;2022-09-01T12:10:36;1.15;;;0.30;;
20306;SDS011;10312;52.434;13.206;2022-09-01T12:15:38;2.03;;;0.40;;
20306;SDS011;10312;52.434;13.206;2022-09-01T12:18:28;1.23;;;0.40;;
20306;SDS011;10312;52.434;13.206;2022-09-01T12:20:58;1.30;;;0.30;;
20306;SDS011;10312;52.434;13.206;2022-09-01T12:23:31;1.23;;;0.50;;
20306;SDS011;10312;52.434;13.206;2022-09-01T12:26:00;1.58;;;0.50;;
20306;SDS011;10312;52.434;13.206;2022-09-01T12:28:29;0.77;;;0.40;;
20306;SDS011;10312;52.434;13.206;2022-09-01T12:31:02;7.90;;;0.60;;
20306;SDS011;10312;52.434;13.206;2022-09-01T12:33:34;0.82;;;0.30;;
20306;SDS011;10312;52.434;13.206;2022-09-01T12:36:22;2.53;;;0.32;;
20306;SDS011;10312;52.434;13.206;2022-09-01T12:38:52;1.48;;;0.40;;
20306;SDS011;10312;52.434;13.206;2022-09-01T12:43:50;2.20;;;0.30;;
20306;SDS011;10312;52.434;13.206;2022-09-01T12:46:39;2.17;;;0.30;;
20306;SDS011;10312;52.434;13.206;2022-09-01T12:49:17;0.20;;;0.20;;
20306;SDS011;10312;52.434;13.206;2022-09-01T12:51:45;1.20;;;0.40;;
20306;SDS011;10312;52.434;13.206;2022-09-01T12:54:14;1.48;;;0.50;;
20306;SDS011;10312;52.434;13.206;2022-09-01T12:56:45;3.80;;;0.32;;
20306;SDS011;10312;52.434;13.206;2022-09-01T12:59:21;3.30;;;0.40;;
20306;SDS011;10312;52.434;13.206;2022-09-01T13:04:52;0.50;;;0.28;;
20306;SDS011;10312;52.434;13.206;2022-09-01T13:07:19;2.58;;;0.30;;
20306;SDS011;10312;52.434;13.206;2022-09-01T13:09:46;0.60;;;0.30;;
20306;SDS011;10312;52.434;13.206;2022-09-01T13:12:19;1.73;;;0.30;;
20306;SDS011;10312;52.434;13.206;2022-09-01T13:14:46;1.80;;;0.40;;
20306;SDS011;10312;52.434;13.206;2022-09-01T13:17:13;1.20;;;0.40;;
20306;SDS011;10312;52.434;13.206;2022-09-01T13:19:40;0.57;;;0.20;;
20306;SDS011;10312;52.434;13.206;2022-09-01T13:22:07;3.78;;;0.30;;
20306;SDS011;10312;52.434;13.206;2022-09-01T13:24:34;0.32;;;0.20;;
20306;SDS011;10312;52.434;13.206;2022-09-01T13:27:01;0.80;;;0.30;;
20306;SDS011;10312;52.434;13.206;2022-09-01T13:29:48;1.95;;;0.32;;
20306;SDS011;10312;52.434;13.206;2022-09-01T13:32:15;1.40;;;0.30;;
20306;SDS011;10312;52.434;13.206;2022-09-01T13:34:47;3.50;;;0.45;;
20306;SDS011;10312;52.434;13.206;2022-09-01T13:37:18;0.77;;;0.30;;
20306;SDS011;10312;52.434;13.206;2022-09-01T13:39:46;4.07;;;0.30;;
20306;SDS011;10312;52.434;13.206;2022-09-01T13:42:14;3.83;;;0.88;;
20306;SDS011;10312;52.434;13.206;2022-09-01T13:44:42;0.90;;;0.25;;
20306;SDS011;10312;52.434;13.206;2022-09-01T13:47:10;1.15;;;0.30;;
20306;SDS011;10312;52.434;13.206;2022-09-01T13:49:57;0.68;;;0.20;;
20306;SDS011;10312;52.434;13.206;2022-09-01T13:52:35;0.88;;;0.43;;
20306;SDS011;10312;52.434;13.206;2022-09-01T13:55:04;1.65;;;0.93;;
20306;SDS011;10312;52.434;13.206;2022-09-01T13:57:32;4.50;;;0.50;;
20306;SDS011;10312;52.434;13.206;2022-09-01T14:00:03;0.88;;;0.30;;
20306;SDS011;10312;52.434;13.206;2022-09-01T14:02:36;0.95;;;0.30;;
20306;SDS011;10312;52.434;13.206;2022-09-01T14:05:04;0.45;;;0.20;;
20306;SDS011;10312;52.434;13.206;2022-09-01T14:07:32;0.93;;;0.30;;
20306;SDS011;10312;52.434;13.206;2022-09-01T14:09:59;0.77;;;0.30;;
20306;SDS011;10312;52.434;13.206;2022-09-01T14:12:26;1.08;;;0.20;;
20306;SDS011;10312;52.434;13.206;2022-09-01T14:14:56;2.65;;;0.85;;
20306;SDS011;10312;52.434;13.206;2022-09-01T14:17:43;0.55;;;0.25;;
20306;SDS011;10312;52.434;13.206;2022-09-01T14:20:12;1.63;;;0.30;;
20306;SDS011;10312;52.434;13.206;2022-09-01T14:22:41;1.10;;;0.28;;
20306;SDS011;10312;52.434;13.206;2022-09-01T14:25:08;2.33;;;0.38;;
20306;SDS011;10312;52.434;13.206;2022-09-01T14:27:36;0.80;;;0.30;;
20306;SDS011;10312;52.434;13.206;2022-09-01T14:30:04;0.35;;;0.20;;
20306;SDS011;10312;52.434;13.206;2022-09-01T14:32:33;1.10;;;0.20;;
20306;SDS011;10312;52.434;13.206;2022-09-01T14:35:00;2.10;;;0.20;;
20306;SDS011;10312;52.434;13.206;2022-09-01T14:37:27;1.75;;;0.20;;
20306;SDS011;10312;52.434;13.206;2022-09-01T14:39:55;1.63;;;0.40;;
20306;SDS011;10312;52.434;13.206;2022-09-01T14:42:23;1.20;;;0.30;;
20306;SDS011;10312;52.434;13.206;2022-09-01T14:44:54;0.43;;;0.30;;
20306;SDS011;10312;52.434;13.206;2022-09-01T14:47:21;0.70;;;0.32;;
20306;SDS011;10312;52.434;13.206;2022-09-01T14:49:51;2.33;;;0.43;;
20306;SDS011;10312;52.434;13.206;2022-09-01T14:52:19;0.30;;;0.10;;
20306;SDS011;10312;52.434;13.206;2022-09-01T14:54:47;1.05;;;0.40;;
20306;SDS011;10312;52.434;13.206;2022-09-01T14:57:15;1.05;;;0.40;;
20306;SDS011;10312;52.434;13.206;2022-09-01T15:00:03;1.73;;;0.20;;
20306;SDS011;10312;52.434;13.206;2022-09-01T15:02:40;0.73;;;0.30;;
20306;SDS011;10312;52.434;13.206;2022-09-01T15:05:08;2.25;;;0.30;;
20306;SDS011;10312;52.434;13.206;2022-09-01T15:07:36;1.10;;;0.40;;
20306;SDS011;10312;52.434;13.206;2022-09-01T15:10:04;1.08;;;0.40;;
20306;SDS011;10312;52.434;13.206;2022-09-01T15:12:33;3.45;;;0.40;;
20306;SDS011;10312;52.434;13.206;2022-09-01T15:15:00;0.70;;;0.20;;
20306;SDS011;10312;52.434;13.206;2022-09-01T15:17:27;1.50;;;0.40;;
20306;SDS011;10312;52.434;13.206;2022-09-01T15:19:54;1.20;;;0.30;;
20306;SDS011;10312;52.434;13.206;2022-09-01T15:22:21;3.38;;;0.60;;
20306;SDS011;10312;52.434;13.206;2022-09-01T15:24:48;2.05;;;0.30;;
20306;SDS011;10312;52.434;13.206;2022-09-01T15:27:15;0.68;;;0.30;;
20306;SDS011;10312;52.434;13.206;2022-09-01T15:29:41;0.90;;;0.40;;
20306;SDS011;10312;52.434;13.206;2022-09-01T15:32:13;1.75;;;0.30;;
20306;SDS011;10312;52.434;13.206;2022-09-01T15:34:53;1.38;;;0.30;;
20306;SDS011;10312;52.434;13.206;2022-09-01T15:37:20;1.85;;;0.30;;
20306;SDS011;10312;52.434;13.206;2022-09-01T15:39:47;1.80;;;0.50;;
20306;SDS011;10312;52.434;13.206;2022-09-01T15:42:14;0.65;;;0.40;;
20306;SDS011;10312;52.434;13.206;2022-09-01T15:44:42;1.60;;;0.43;;
20306;SDS011;10312;52.434;13.206;2022-09-01T15:47:09;1.15;;;0.40;;
20306;SDS011;10312;52.434;13.206;2022-09-01T15:49:36;0.82;;;0.30;;
20306;SDS011;10312;52.434;13.206;2022-09-01T15:52:03;2.72;;;0.47;;
20306;SDS011;10312;52.434;13.206;2022-09-01T15:54:30;0.50;;;0.30;;
20306;SDS011;10312;52.434;13.206;2022-09-01T15:56:56;3.33;;;0.47;;
20306;SDS011;10312;52.434;13.206;2022-09-01T15:59:23;1.88;;;0.38;;
20306;SDS011;10312;52.434;13.206;2022-09-01T16:01:51;3.35;;;0.30;;
20306;SDS011;10312;52.434;13.206;2022-09-01T16:04:22;4.25;;;0.40;;
20306;SDS011;10312;52.434;13.206;2022-09-01T16:06:53;0.80;;;0.30;;
20306;SDS011;10312;52.434;13.206;2022-09-01T16:09:22;0.50;;;0.32;;
20306;SDS011;10312;52.434;13.206;2022-09-01T16:11:48;1.33;;;0.50;;
20306;SDS011;10312;52.434;13.206;2022-09-01T16:14:15;4.55;;;0.60;;
20306;SDS011;10312;52.434;13.206;2022-09-01T16:16:46;1.85;;;0.43;;
20306;SDS011;10312;52.434;13.206;2022-09-01T16:21:51;1.10;;;0.40;;
20306;SDS011;10312;52.434;13.206;2022-09-01T16:24:22;1.23;;;0.32;;
20306;SDS011;10312;52.434;13.206;2022-09-01T16:26:50;0.60;;;0.30;;
20306;SDS011;10312;52.434;13.206;2022-09-01T16:29:25;1.08;;;0.30;;
20306;SDS011;10312;52.434;13.206;2022-09-01T16:31:56;1.92;;;0.45;;